Time;durP1;ratioP1;P1;durP2;ratioP2;P2;SDS_P1;SDS_P2;PMS_P1;PMS_P2;Temp;Humidity;BMP_temperature;BMP_pressure;BME280_temperature;BME280_humidity;BME280_pressure;Samples;Min_cycle;Max_cycle;Signal;HPM_P1;HPM_P2
2022/11/10 00:00:42;;;;;;;;;83.33;58.67;;;;;10.14;100.00;99924.00;6266823;20;3655459;-53
2022/11/10 00:03:12;;;;;;;;;84.33;68.67;;;;;10.20;100.00;99923.63;6265718;20;3651307;-53
2022/11/10 00:05:42;;;;;;;;;84.67;64.67;;;;;10.15;100.00;99925.72;6267981;20;3647236;-52
2022/11/10 00:08:12;;;;;;;;;85.00;64.33;;;;;10.14;100.00;99907.91;6266732;20;3663933;-56
2022/11/10 00:11:00;;;;;;;;;84.50;69.50;;;;;10.22;100.00;99920.88;6265987;20;1927455;-50
2022/11/10 00:13:34;;;;;;;;;83.25;65.75;;;;;10.20;100.00;99923.63;6268786;20;4396185;-55
2022/11/10 00:18:53;;;;;;;;;80.00;58.00;;;;;10.24;100.00;99927.91;6304146;20;4394023;-54
2022/11/10 00:21:23;;;;;;;;;83.00;59.50;;;;;10.24;100.00;99930.59;6300787;20;4410637;-54
2022/11/10 00:23:52;;;;;;;;;78.75;59.50;;;;;10.10;100.00;99927.78;6300603;20;4404394;-53
2022/11/10 00:26:22;;;;;;;;;79.00;58.50;;;;;9.97;100.00;99935.66;6305988;20;4411717;-55
2022/11/10 00:28:51;;;;;;;;;79.75;57.50;;;;;10.16;100.00;99932.78;6308686;20;3657664;-52
2022/11/10 00:31:21;;;;;;;;;83.00;58.00;;;;;10.24;100.00;99935.94;6307159;20;4415895;-50
2022/11/10 00:33:49;;;;;;;;;83.00;62.50;;;;;10.43;100.00;99924.19;6301928;20;1933687;-54
2022/11/10 00:36:18;;;;;;;;;80.67;61.00;;;;;10.49;100.00;99929.22;6271101;20;3651454;-53
2022/11/10 00:38:50;;;;;;;;;82.00;61.33;;;;;10.40;100.00;99930.59;6265010;20;3644508;-55
2022/11/10 00:41:21;;;;;;;;;82.33;60.00;;;;;10.06;100.00;99931.59;6271297;20;3656567;-55
2022/11/10 00:43:49;;;;;;;;;75.00;56.00;;;;;9.96;100.00;99928.56;6276823;20;3634780;-55
2022/11/10 00:46:19;;;;;;;;;76.25;57.25;;;;;10.04;100.00;99929.00;6273885;20;4400415;-54
2022/11/10 00:48:47;;;;;;;;;79.50;57.50;;;;;10.26;100.00;99928.66;6302705;20;1929752;-54
2022/11/10 00:51:28;;;;;;;;;80.00;57.00;;;;;10.49;100.00;99934.56;6271010;20;3655544;-53
2022/11/10 00:53:57;;;;;;;;;77.00;56.00;;;;;10.37;100.00;99928.06;6270627;20;4399249;-55
2022/11/10 00:56:27;;;;;;;;;77.75;58.50;;;;;10.13;100.00;99924.94;6301905;20;3646327;-53
2022/11/10 00:58:57;;;;;;;;;78.75;56.50;;;;;10.06;100.00;99916.38;6305311;20;4404383;-54
2022/11/10 01:01:26;;;;;;;;;78.50;57.00;;;;;10.32;100.00;99917.63;6302343;20;4422191;-52
2022/11/10 01:03:56;;;;;;;;;76.25;55.50;;;;;10.36;100.00;99925.50;6304866;20;4385636;-53
2022/11/10 01:06:25;;;;;;;;;77.75;57.00;;;;;10.23;100.00;99923.47;6307622;20;4409625;-52
2022/11/10 01:08:55;;;;;;;;;77.00;57.25;;;;;10.06;100.00;99926.25;6306392;20;3639952;-54
2022/11/10 01:11:27;;;;;;;;;78.25;58.25;;;;;10.06;100.00;99932.47;6308331;20;4403789;-51
2022/11/10 01:13:57;;;;;;;;;76.50;56.75;;;;;10.18;100.00;99930.03;6306191;20;3622123;-54
2022/11/10 01:16:31;;;;;;;;;74.25;55.75;;;;;10.19;100.00;99921.03;6303444;20;3639956;-53
2022/11/10 01:19:02;;;;;;;;;77.50;56.75;;;;;10.03;100.00;99921.91;6305003;20;3636877;-54
2022/11/10 01:21:32;;;;;;;;;79.50;57.25;;;;;10.11;100.00;99916.13;6304331;20;4409686;-51
2022/11/10 01:24:02;;;;;;;;;82.75;62.25;;;;;9.95;100.00;99924.13;6302389;20;4423243;-52
2022/11/10 01:26:32;;;;;;;;;80.75;62.50;;;;;10.00;100.00;99926.56;6304408;20;4411864;-55
2022/11/10 01:29:03;;;;;;;;;81.00;58.50;;;;;10.06;100.00;99918.19;6306238;20;4409728;-55
2022/11/10 01:31:32;;;;;;;;;81.25;60.50;;;;;9.96;100.00;99919.66;6306789;20;4411767;-53
2022/11/10 01:34:02;;;;;;;;;79.25;61.50;;;;;10.09;100.00;99929.59;6304221;20;4398636;-54
2022/11/10 01:36:31;;;;;;;;;81.00;60.25;;;;;10.04;100.00;99922.78;6302815;20;4412866;-51
2022/11/10 01:39:01;;;;;;;;;81.50;60.00;;;;;9.92;100.00;99926.13;6305480;20;4410694;-52
2022/11/10 01:41:30;;;;;;;;;76.50;60.50;;;;;10.01;100.00;99918.44;6304710;20;3626537;-51
2022/11/10 01:44:20;;;;;;;;;83.75;59.25;;;;;9.98;100.00;99912.38;6305808;20;4416900;-55
2022/11/10 01:46:50;;;;;;;;;80.75;61.50;;;;;10.11;100.00;99919.66;6303249;20;4395095;-55
2022/11/10 01:49:26;;;;;;;;;78.25;57.75;;;;;9.97;100.00;99916.88;6305074;20;4405456;-54
2022/11/10 01:52:11;;;;;;;;;77.25;57.25;;;;;10.02;100.00;99919.31;6302080;20;4403553;-53
2022/11/10 01:54:47;;;;;;;;;79.25;60.00;;;;;10.10;100.00;99925.09;6303990;20;4395094;-56
2022/11/10 01:57:16;;;;;;;;;81.00;59.00;;;;;10.08;100.00;99918.94;6301793;20;1931515;-54
2022/11/10 01:59:48;;;;;;;;;75.25;54.00;;;;;10.11;100.00;99930.41;6274036;20;3643190;-53
2022/11/10 02:02:37;;;;;;;;;79.50;60.50;;;;;10.12;100.00;99923.22;6297069;20;1921126;-55
2022/11/10 02:05:05;;;;;;;;;85.50;64.50;;;;;10.07;100.00;99920.78;6268103;20;1927456;-53
2022/11/10 02:07:34;;;;;;;;;89.50;70.00;;;;;10.06;100.00;99921.72;6265494;20;1935816;-54
2022/11/10 02:10:13;;;;;;;;;85.33;64.67;;;;;10.17;100.00;99923.81;6263580;20;3673193;-54
2022/11/10 02:12:43;;;;;;;;;79.67;56.33;;;;;10.03;100.00;99923.69;6267464;20;3662825;-55
2022/11/10 02:15:16;;;;;;;;;81.75;58.75;;;;;10.06;100.00;99927.09;6273212;20;3660790;-54
2022/11/10 02:17:47;;;;;;;;;82.50;64.00;;;;;10.13;100.00;99930.28;6304959;20;4415982;-53
2022/11/10 02:20:20;;;;;;;;;79.00;57.75;;;;;10.03;100.00;99934.44;6305532;20;4410637;-57
2022/11/10 02:22:49;;;;;;;;;78.50;58.00;;;;;10.16;100.00;99930.13;6305239;20;4406199;-57
2022/11/10 02:25:21;;;;;;;;;78.75;59.50;;;;;10.30;100.00;99932.06;6306774;20;4420085;-53
2022/11/10 02:27:51;;;;;;;;;79.75;56.75;;;;;10.26;100.00;99935.84;6305378;20;4412811;-55
2022/11/10 02:30:20;;;;;;;;;85.25;66.25;;;;;10.33;100.00;99932.75;6304221;20;4420181;-57
2022/11/10 02:32:55;;;;;;;;;71.00;54.33;;;;;10.39;100.00;99933.38;6302895;20;3622112;-53
2022/11/10 02:35:25;;;;;;;;;80.25;60.50;;;;;10.27;100.00;99934.91;6301862;20;4403363;-56
2022/11/10 02:37:53;;;;;;;;;80.00;61.50;;;;;10.19;100.00;99940.69;6299242;20;1924432;-54
2022/11/10 02:40:20;;;;;;;;;75.50;57.00;;;;;10.22;100.00;99937.84;6267926;20;1929419;-54
2022/11/10 02:42:50;;;;;;;;;78.75;59.25;;;;;10.23;100.00;99944.06;6269264;20;4412764;-56
2022/11/10 02:45:19;;;;;;;;;82.25;61.00;;;;;10.19;100.00;99947.84;6305332;20;4416957;-53
2022/11/10 02:47:49;;;;;;;;;82.50;60.50;;;;;10.20;100.00;99945.09;6305110;20;4403568;-56
2022/11/10 02:50:18;;;;;;;;;80.50;58.75;;;;;10.04;100.00;99952.28;6308389;20;4419042;-50
2022/11/10 02:52:48;;;;;;;;;85.50;63.75;;;;;10.15;100.00;99951.69;6303600;20;4429635;-55
2022/11/10 02:55:17;;;;;;;;;81.25;64.00;;;;;10.09;100.00;99948.38;6305195;20;4399259;-54
2022/11/10 02:57:45;;;;;;;;;80.50;59.50;;;;;10.20;100.00;99950.47;6300735;20;1930638;-54
2022/11/10 03:00:15;;;;;;;;;86.67;60.33;;;;;10.13;100.00;99954.44;6271323;20;3671099;-53
2022/11/10 03:02:45;;;;;;;;;87.00;64.50;;;;;10.08;100.00;99962.75;6273470;20;4419009;-55
2022/11/10 03:05:14;;;;;;;;;83.00;60.25;;;;;10.08;100.00;99962.75;6304622;20;4414918;-55
2022/11/10 03:07:42;;;;;;;;;82.00;62.50;;;;;10.24;100.00;99962.78;6300025;20;1930597;-55
2022/11/10 03:10:12;;;;;;;;;82.25;58.00;;;;;10.26;100.00;99970.72;6272664;20;4412861;-55
2022/11/10 03:12:39;;;;;;;;;84.00;65.50;;;;;10.17;100.00;99971.25;6305110;20;1913800;-53
2022/11/10 03:15:09;;;;;;;;;82.67;62.00;;;;;10.16;100.00;99965.00;6270029;20;3663017;-56
2022/11/10 03:17:40;;;;;;;;;78.67;58.33;;;;;10.23;100.00;99974.44;6272006;20;3658674;-54
2022/11/10 03:20:08;;;;;;;;;85.50;67.00;;;;;10.19;100.00;99986.31;6270676;20;1941986;-54
2022/11/10 03:22:38;;;;;;;;;82.25;58.00;;;;;10.31;100.00;99974.06;6271032;20;4411720;-54
2022/11/10 03:25:08;;;;;;;;;105.00;76.33;;;;;10.26;100.00;99979.63;6300416;20;1945845;-55
2022/11/10 03:27:36;;;;;;;;;91.00;71.50;;;;;10.22;100.00;99985.28;6298034;20;1926421;-56
2022/11/10 03:30:07;;;;;;;;;106.25;82.75;;;;;10.12;100.00;99984.91;6267338;20;4464815;-56
2022/11/10 03:32:37;;;;;;;;;98.00;74.33;;;;;10.03;100.00;99996.13;6270353;20;3682519;-55
2022/11/10 03:35:05;;;;;;;;;98.00;76.00;;;;;10.05;100.00;99994.25;6300778;20;1935835;-53
2022/11/10 03:37:35;;;;;;;;;88.25;70.25;;;;;10.18;100.00;99995.28;6269170;20;4417906;-54
2022/11/10 03:40:06;;;;;;;;;98.00;72.67;;;;;10.27;100.00;99993.94;6300437;20;3691939;-55
2022/11/10 03:42:35;;;;;;;;;109.33;80.67;;;;;10.23;100.00;99997.75;6271344;20;3704554;-54
2022/11/10 03:45:06;;;;;;;;;87.25;71.25;;;;;10.29;100.00;100000.09;6267117;20;3671232;-52
2022/11/10 03:47:36;;;;;;;;;86.25;70.00;;;;;10.24;100.00;99994.97;6301736;20;4416885;-55
2022/11/10 03:50:05;;;;;;;;;100.50;67.50;;;;;10.28;100.00;99996.56;6298189;20;1934834;-54
2022/11/10 03:52:33;;;;;;;;;86.00;66.00;;;;;10.28;100.00;99990.34;6263400;20;1931572;-52
2022/11/10 03:55:03;;;;;;;;;88.33;67.33;;;;;10.15;100.00;100000.84;6268585;20;3673409;-54
2022/11/10 03:57:31;;;;;;;;;86.00;65.00;;;;;10.13;100.00;99996.50;6268290;20;1925576;-51
2022/11/10 03:59:59;;;;;;;;;86.00;65.00;;;;;10.18;100.00;100000.66;6276680;20;1924334;-54
2022/11/10 04:02:29;;;;;;;;;80.25;58.25;;;;;10.18;100.00;99984.56;6277186;20;4422125;-53
2022/11/10 04:10:35;;;;;;;;;84.00;60.67;;;;;10.24;100.00;100011.09;6275226;20;3667936;-56
2022/11/10 04:15:51;;;;;;;;;84.00;63.00;;;;;10.30;100.00;100023.31;6301573;20;1928469;-53
2022/11/10 04:18:24;;;;;;;;;80.00;61.00;;;;;10.39;100.00;100019.25;6276593;20;4411752;-53
2022/11/10 04:20:59;;;;;;;;;82.50;57.00;;;;;10.31;100.00;100033.97;6299353;20;1933780;-51
2022/11/10 04:23:35;;;;;;;;;81.75;59.75;;;;;10.33;100.00;100026.69;6275032;20;4411793;-52
2022/11/10 04:26:29;;;;;;;;;83.50;60.75;;;;;10.32;100.00;100024.97;6303478;20;4421064;-54
2022/11/10 04:29:02;;;;;;;;;81.25;61.25;;;;;10.32;100.00;100027.66;6308480;20;4410731;-58
2022/11/10 04:31:36;;;;;;;;;81.00;58.25;;;;;10.23;100.00;100028.13;6304788;20;4395168;-55
2022/11/10 04:34:08;;;;;;;;;88.00;64.00;;;;;10.32;100.00;100029.44;6306391;20;1930523;-54
2022/11/10 04:36:41;;;;;;;;;79.00;61.75;;;;;10.26;100.00;100019.03;6274890;20;4404499;-53
2022/11/10 04:39:10;;;;;;;;;86.00;63.50;;;;;10.33;100.00;100032.06;6302888;20;4416995;-54
2022/11/10 04:41:40;;;;;;;;;74.00;55.50;;;;;10.38;100.00;100034.50;6303810;20;4395634;-52
2022/11/10 04:44:09;;;;;;;;;83.25;60.75;;;;;10.24;100.00;100037.91;6305810;20;4423160;-53
2022/11/10 04:46:40;;;;;;;;;84.50;63.25;;;;;10.30;100.00;100029.56;6305193;20;4431626;-53
2022/11/10 04:49:11;;;;;;;;;79.50;57.00;;;;;10.24;100.00;100037.03;6305826;20;4414823;-53
2022/11/10 04:51:40;;;;;;;;;80.25;61.00;;;;;10.28;100.00;100033.28;6307035;20;4409748;-53
2022/11/10 04:54:11;;;;;;;;;84.00;65.00;;;;;10.23;100.00;100038.00;6302869;20;4408593;-55
2022/11/10 04:56:41;;;;;;;;;85.00;65.75;;;;;10.24;100.00;100032.56;6301371;20;4400260;-57
2022/11/10 04:59:08;;;;;;;;;87.50;69.00;;;;;10.31;100.00;100038.47;6306649;20;1931813;-55
2022/11/10 05:01:38;;;;;;;;;95.75;70.25;;;;;10.39;100.00;100033.53;6274358;20;4427292;-55
2022/11/10 05:04:06;;;;;;;;;86.50;63.00;;;;;10.32;100.00;100030.34;6302338;20;1930586;-55
2022/11/10 05:06:35;;;;;;;;;82.75;58.50;;;;;10.26;100.00;100027.94;6274686;20;4425225;-55
2022/11/10 05:09:03;;;;;;;;;91.50;70.50;;;;;10.27;100.00;100039.56;6301120;20;1929598;-54
2022/11/10 05:11:31;;;;;;;;;95.00;69.00;;;;;10.29;100.00;100035.88;6271107;20;1935728;-52
2022/11/10 05:14:00;;;;;;;;;94.33;70.67;;;;;10.22;100.00;100042.50;6304321;20;3664880;-56
2022/11/10 05:16:28;;;;;;;;;91.00;68.00;;;;;10.28;100.00;100039.50;6266568;20;1934805;-54
2022/11/10 05:18:57;;;;;;;;;87.00;71.00;;;;;10.39;100.00;100051.47;6270151;20;1927567;-55
2022/11/10 05:21:26;;;;;;;;;91.75;65.50;;;;;10.29;100.00;100054.66;6276333;20;4425210;-50
2022/11/10 05:23:54;;;;;;;;;86.00;61.50;;;;;10.23;100.00;100051.41;6302408;20;1928437;-53
2022/11/10 05:26:23;;;;;;;;;85.00;62.67;;;;;10.27;100.00;100063.72;6271874;20;3666976;-55
2022/11/10 05:28:53;;;;;;;;;89.00;61.00;;;;;10.35;100.00;100071.38;6274981;20;4414866;-51
2022/11/10 05:31:22;;;;;;;;;81.00;62.50;;;;;10.37;100.00;100069.47;6307134;20;4421068;-55
2022/11/10 05:33:50;;;;;;;;;83.00;63.00;;;;;10.24;100.00;100075.50;6299711;20;1923214;-55
2022/11/10 05:36:20;;;;;;;;;81.67;58.33;;;;;10.32;100.00;100072.41;6275077;20;3655462;-57
2022/11/10 05:38:49;;;;;;;;;71.50;53.50;;;;;10.27;100.00;100075.34;6274430;20;3630493;-53
2022/11/10 05:41:18;;;;;;;;;75.75;56.50;;;;;10.44;100.00;100081.59;6305562;20;3650384;-56
2022/11/10 05:43:48;;;;;;;;;79.25;56.25;;;;;10.37;100.00;100090.94;6306150;20;4414669;-56
2022/11/10 05:46:16;;;;;;;;;77.00;55.50;;;;;10.25;100.00;100100.50;6302771;20;1929664;-54
2022/11/10 05:48:46;;;;;;;;;73.67;53.00;;;;;10.37;100.00;100107.03;6272630;20;3627326;-54
2022/11/10 05:51:16;;;;;;;;;75.75;55.25;;;;;10.37;100.00;100102.53;6304225;20;4416903;-54
2022/11/10 05:53:45;;;;;;;;;73.67;54.33;;;;;10.46;100.00;100106.56;6304259;20;3632935;-53
2022/11/10 05:56:15;;;;;;;;;64.67;50.33;;;;;10.26;100.00;100118.31;6301744;20;3633622;-54
2022/11/10 05:58:43;;;;;;;;;76.00;57.67;;;;;10.44;100.00;100119.19;6307534;20;3629582;-54
2022/11/10 06:01:11;;;;;;;;;79.50;59.00;;;;;10.43;100.00;100117.47;6267555;20;1926299;-57
2022/11/10 06:03:39;;;;;;;;;78.00;58.00;;;;;10.51;100.00;100115.22;6269291;20;1924240;-53
2022/11/10 06:06:08;;;;;;;;;76.00;57.00;;;;;10.44;100.00;100129.94;6273969;20;4397102;-56
2022/11/10 06:08:38;;;;;;;;;75.50;57.00;;;;;10.39;100.00;100127.47;6305088;20;4397677;-52
2022/11/10 06:11:07;;;;;;;;;64.33;51.33;;;;;10.29;100.00;100142.34;6304011;20;3619122;-54
2022/11/10 06:13:37;;;;;;;;;72.50;52.75;;;;;10.21;100.00;100139.16;6307345;20;3635794;-54
2022/11/10 06:16:06;;;;;;;;;71.67;52.67;;;;;10.36;100.00;100150.94;6304729;20;3626308;-55
2022/11/10 06:18:34;;;;;;;;;72.33;52.67;;;;;10.44;100.00;100152.25;6276348;20;3626348;-54
2022/11/10 06:21:04;;;;;;;;;72.75;56.50;;;;;10.33;100.00;100155.53;6271185;20;3636208;-56
2022/11/10 06:23:33;;;;;;;;;72.50;52.50;;;;;10.52;100.00;100154.53;6309338;20;3638801;-54
2022/11/10 06:26:02;;;;;;;;;73.67;54.00;;;;;10.42;100.00;100164.03;6301568;20;3626410;-55
2022/11/10 06:28:31;;;;;;;;;73.25;53.25;;;;;10.51;100.00;100163.56;6274442;20;4381524;-55
2022/11/10 06:30:59;;;;;;;;;78.00;55.00;;;;;10.67;100.00;100167.16;6298611;20;1929470;-56
2022/11/10 06:33:29;;;;;;;;;69.50;51.00;;;;;10.46;100.00;100160.25;6273672;20;3638895;-55
2022/11/10 06:35:58;;;;;;;;;70.50;52.75;;;;;10.56;100.00;100172.25;6305363;20;3627315;-49
2022/11/10 06:38:28;;;;;;;;;72.75;50.00;;;;;10.70;100.00;100175.03;6305454;20;4408550;-56
2022/11/10 06:40:57;;;;;;;;;65.50;49.00;;;;;10.69;100.00;100178.69;6305679;20;4397095;-52
2022/11/10 06:43:27;;;;;;;;;70.33;53.00;;;;;10.87;100.00;100186.66;6301237;20;3619126;-51
2022/11/10 06:45:56;;;;;;;;;71.25;52.25;;;;;11.08;100.00;100192.69;6301407;20;3638888;-53
2022/11/10 06:48:26;;;;;;;;;71.33;53.00;;;;;10.94;100.00;100188.06;6300334;20;3630537;-57
2022/11/10 06:50:59;;;;;;;;;69.50;51.75;;;;;10.84;100.00;100193.06;6306319;20;3620569;-55
2022/11/10 06:53:28;;;;;;;;;71.50;53.50;;;;;10.70;100.00;100185.78;6304114;20;3635755;-53
2022/11/10 06:55:58;;;;;;;;;70.67;51.00;;;;;10.80;100.00;100199.59;6303553;20;3629396;-54
2022/11/10 06:58:26;;;;;;;;;65.67;51.00;;;;;10.97;100.00;100190.59;6271794;20;3621081;-56
2022/11/10 07:01:00;;;;;;;;;72.00;52.33;;;;;11.23;100.00;100199.03;6272340;20;3632725;-56
2022/11/10 07:03:29;;;;;;;;;65.00;48.33;;;;;11.04;100.00;100202.75;6268655;20;3621227;-56
2022/11/10 07:05:58;;;;;;;;;70.75;52.25;;;;;11.37;100.00;100207.16;6303084;20;3636827;-55
2022/11/10 07:08:27;;;;;;;;;68.00;52.67;;;;;11.52;100.00;100211.69;6303989;20;3613831;-56
2022/11/10 07:10:57;;;;;;;;;65.67;50.33;;;;;11.53;100.00;100207.16;6270139;20;3626302;-55
2022/11/10 07:13:26;;;;;;;;;66.33;50.00;;;;;11.62;100.00;100202.13;6301153;20;2874330;-56
2022/11/10 07:15:55;;;;;;;;;66.67;52.00;;;;;11.75;100.00;100217.56;6304358;20;3611818;-57
2022/11/10 07:18:24;;;;;;;;;70.00;53.00;;;;;11.81;100.00;100222.59;6273948;20;3621176;-54
2022/11/10 07:20:52;;;;;;;;;60.67;48.00;;;;;11.82;100.00;100225.22;6275670;20;3616921;-55
2022/11/10 07:23:22;;;;;;;;;69.00;50.33;;;;;11.95;100.00;100225.38;6270855;20;3646093;-55
2022/11/10 07:25:52;;;;;;;;;65.00;48.33;;;;;11.73;100.00;100228.41;6268125;20;3649226;-56
2022/11/10 07:28:21;;;;;;;;;64.33;48.00;;;;;11.45;100.00;100234.50;6269759;20;3628363;-54
2022/11/10 07:30:56;;;;;;;;;64.00;47.50;;;;;11.80;100.00;100226.25;6302834;20;3645180;-55
2022/11/10 07:33:25;;;;;;;;;60.00;47.67;;;;;11.69;100.00;100223.28;6309529;20;3625361;-54
2022/11/10 07:36:05;;;;;;;;;62.67;48.33;;;;;11.90;100.00;100237.34;6274824;20;3621140;-56
2022/11/10 07:38:34;;;;;;;;;57.67;45.00;;;;;12.14;100.00;100237.72;6313284;20;3619133;-55
2022/11/10 07:41:04;;;;;;;;;64.25;47.00;;;;;11.96;100.00;100248.66;6283275;20;4391984;-55
2022/11/10 07:43:33;;;;;;;;;58.00;46.00;;;;;12.11;100.00;100252.25;6314491;20;3620238;-56
2022/11/10 07:46:03;;;;;;;;;61.00;45.33;;;;;11.89;100.00;100254.47;6313225;20;4264841;-54
2022/11/10 07:48:32;;;;;;;;;63.67;46.67;;;;;12.13;100.00;100253.03;6310468;20;3651853;-54
2022/11/10 07:51:01;;;;;;;;;56.67;45.67;;;;;12.31;100.00;100259.16;6278998;20;3616892;-54
2022/11/10 07:53:29;;;;;;;;;62.00;44.00;;;;;12.51;100.00;100257.97;6309509;20;1923317;-53
2022/11/10 07:55:59;;;;;;;;;52.25;41.00;;;;;12.85;100.00;100270.25;6282257;20;3620310;-55
2022/11/10 07:58:29;;;;;;;;;48.33;38.00;;;;;12.78;100.00;100260.78;6315703;20;3596170;-54
2022/11/10 08:01:04;;;;;;;;;52.67;41.00;;;;;12.76;100.00;100273.50;6270070;20;3620127;-54
2022/11/10 08:03:38;;;;;;;;;50.33;40.33;;;;;12.25;100.00;100281.94;6302532;20;3590899;-54
2022/11/10 08:06:12;;;;;;;;;42.33;36.33;;;;;12.31;100.00;100278.00;6267948;20;3603139;-53
2022/11/10 08:15:04;;;;;;;;;53.67;41.67;;;;;12.48;100.00;100296.72;6269206;20;3633658;-54
2022/11/10 08:17:34;;;;;;;;;55.00;43.00;;;;;12.16;100.00;100303.97;6314967;20;3636797;-52
2022/11/10 08:20:03;;;;;;;;;52.00;42.00;;;;;12.21;100.00;100301.03;6316566;20;3620109;-52
2022/11/10 08:22:32;;;;;;;;;55.00;43.00;;;;;12.30;100.00;100303.19;6292007;20;3638866;-50
2022/11/10 08:25:02;;;;;;;;;53.00;42.50;;;;;12.33;100.00;100311.09;6322278;20;3627414;-49
2022/11/10 08:27:35;;;;;;;;;54.25;41.75;;;;;12.18;100.00;100317.38;6321562;20;3636811;-52
2022/11/10 08:30:04;;;;;;;;;53.67;42.67;;;;;12.06;100.00;100327.91;6316579;20;3620284;-50
2022/11/10 08:32:34;;;;;;;;;53.67;42.00;;;;;12.16;100.00;100313.88;6287501;20;3626361;-51
2022/11/10 08:35:04;;;;;;;;;53.67;42.67;;;;;12.43;100.00;100317.69;6318132;20;3624287;-51
2022/11/10 08:37:34;;;;;;;;;59.50;44.50;;;;;11.99;100.00;100323.81;6320839;20;3636956;-52
2022/11/10 08:40:04;;;;;;;;;54.25;41.25;;;;;12.20;100.00;100327.09;6323430;20;3628590;-49
2022/11/10 08:42:34;;;;;;;;;54.50;39.75;;;;;12.49;100.00;100330.78;6324205;20;3639887;-52
2022/11/10 08:45:03;;;;;;;;;50.33;40.00;;;;;12.64;100.00;100330.84;6317486;20;3598832;-53
2022/11/10 08:47:32;;;;;;;;;55.33;44.00;;;;;12.46;100.00;100333.66;6281925;20;3624245;-50
2022/11/10 08:50:01;;;;;;;;;49.00;41.33;;;;;12.74;100.00;100348.16;6314947;20;3603439;-48
2022/11/10 08:52:30;;;;;;;;;48.00;39.00;;;;;12.45;100.00;100340.00;6281451;20;2848217;-51
2022/11/10 08:54:59;;;;;;;;;45.33;35.00;;;;;12.55;99.27;100342.13;6314611;20;3604449;-53
2022/11/10 08:57:28;;;;;;;;;40.33;34.67;;;;;12.20;96.21;100348.63;6279461;20;2847255;-50
2022/11/10 08:59:57;;;;;;;;;35.00;33.00;;;;;12.06;97.43;100349.44;6314612;20;3568992;-53
2022/11/10 09:02:25;;;;;;;;;47.67;36.00;;;;;12.24;98.54;100360.09;6316503;20;3623255;-51
2022/11/10 09:04:54;;;;;;;;;47.33;37.33;;;;;12.48;97.49;100364.06;6285952;20;3612042;-50
2022/11/10 09:07:23;;;;;;;;;42.67;36.00;;;;;12.35;99.04;100372.91;6284844;20;3620198;-53
2022/11/10 09:09:52;;;;;;;;;49.00;39.33;;;;;12.29;99.18;100375.00;6281070;20;3605854;-49
2022/11/10 09:12:36;;;;;;;;;47.00;38.00;;;;;12.43;100.00;100376.94;6308832;20;2851417;-49
2022/11/10 09:15:07;;;;;;;;;49.67;39.33;;;;;12.31;99.40;100380.31;6315351;20;3608820;-51
2022/11/10 09:17:40;;;;;;;;;48.33;37.33;;;;;12.46;99.61;100387.50;6278606;20;3606646;-52
2022/11/10 09:20:11;;;;;;;;;44.67;36.67;;;;;12.41;98.50;100392.31;6316081;20;3591928;-53
2022/11/10 09:22:41;;;;;;;;;43.00;34.00;;;;;12.38;99.50;100389.78;6281360;20;3624205;-50
2022/11/10 09:25:09;;;;;;;;;49.67;40.00;;;;;12.55;99.47;100394.19;6316096;20;3608720;-52
2022/11/10 09:27:39;;;;;;;;;51.00;39.67;;;;;12.19;100.00;100386.41;6281770;20;3603400;-50
2022/11/10 09:30:09;;;;;;;;;51.33;39.67;;;;;12.22;100.00;100397.88;6316618;20;3630573;-50
2022/11/10 09:32:45;;;;;;;;;52.00;41.00;;;;;12.32;99.79;100400.88;6278195;20;3616947;-54
2022/11/10 09:35:14;;;;;;;;;53.00;41.33;;;;;12.40;100.00;100409.44;6311664;20;3616957;-49
2022/11/10 09:37:43;;;;;;;;;46.00;36.33;;;;;12.13;100.00;100406.47;6284955;20;3608595;-55
2022/11/10 09:40:28;;;;;;;;;48.00;39.33;;;;;11.99;100.00;100409.06;6281325;20;2856593;-52
2022/11/10 09:43:02;;;;;;;;;48.33;40.00;;;;;12.07;99.02;100407.69;6310377;20;2846442;-52
2022/11/10 09:45:38;;;;;;;;;49.67;38.00;;;;;12.74;97.36;100412.81;6311861;20;3614820;-49
2022/11/10 09:48:34;;;;;;;;;48.33;38.67;;;;;12.48;96.92;100407.16;6279836;20;2856661;-53
2022/11/10 09:51:23;;;;;;;;;52.00;41.67;;;;;12.59;97.69;100413.75;6313576;20;3613255;-52
2022/11/10 09:54:31;;;;;;;;;53.00;41.67;;;;;12.43;98.52;100405.69;6283688;20;3627457;-53
2022/11/10 09:57:04;;;;;;;;;53.67;41.33;;;;;12.37;97.63;100404.19;6314196;20;3623220;-50
2022/11/10 09:59:35;;;;;;;;;39.00;33.33;;;;;12.60;97.07;100400.16;6283757;20;2859712;-50
2022/11/10 10:02:30;;;;;;;;;53.33;42.33;;;;;12.61;98.67;100414.50;6311873;20;3613809;-53
2022/11/10 10:05:19;;;;;;;;;48.67;40.00;;;;;12.59;99.34;100413.75;6281614;20;3602361;-51
2022/11/10 10:08:06;;;;;;;;;52.67;41.33;;;;;12.29;98.77;100409.16;6314860;20;3600350;-51
2022/11/10 10:11:20;;;;;;;;;58.25;46.00;;;;;12.36;100.00;100404.31;6315827;20;3628412;-53
2022/11/10 10:14:30;;;;;;;;;53.00;41.00;;;;;12.53;100.00;100409.56;6316893;20;3623276;-51
2022/11/10 10:17:27;;;;;;;;;53.67;41.67;;;;;12.20;100.00;100412.38;6277362;20;3620098;-52
2022/11/10 10:21:00;;;;;;;;;53.00;42.00;;;;;12.27;100.00;100424.56;6313998;20;3603423;-51
2022/11/10 10:23:51;;;;;;;;;56.00;43.33;;;;;12.28;100.00;100410.13;6277513;20;3635843;-52
2022/11/10 10:26:52;;;;;;;;;49.33;40.33;;;;;12.25;100.00;100427.31;6276905;20;3602351;-49
2022/11/10 10:29:34;;;;;;;;;59.25;44.25;;;;;12.39;100.00;100420.28;6317080;20;3624215;-50
2022/11/10 10:32:13;;;;;;;;;57.00;41.00;;;;;12.43;100.00;100432.63;6313295;20;3636753;-51
2022/11/10 10:34:44;;;;;;;;;53.75;43.00;;;;;12.44;100.00;100437.91;6284984;20;3619087;-52
2022/11/10 10:37:48;;;;;;;;;57.67;45.00;;;;;12.55;100.00;100444.50;6310339;20;3621115;-54
2022/11/10 10:40:22;;;;;;;;;53.00;41.00;;;;;12.61;99.29;100452.22;6313488;20;3621172;-51
2022/11/10 10:42:53;;;;;;;;;53.75;42.00;;;;;12.68;99.01;100459.00;6314534;20;4372272;-52
2022/11/10 10:45:28;;;;;;;;;46.67;36.00;;;;;12.41;99.84;100454.25;6315100;20;3606501;-50
2022/11/10 10:47:58;;;;;;;;;54.33;43.00;;;;;12.35;99.84;100449.22;6315073;20;3623314;-49
2022/11/10 10:50:35;;;;;;;;;56.33;43.67;;;;;12.20;99.95;100447.38;6279571;20;3633693;-54
2022/11/10 10:53:13;;;;;;;;;52.33;42.00;;;;;12.86;99.95;100457.94;6312430;20;3615930;-50
2022/11/10 10:56:18;;;;;;;;;53.67;40.00;;;;;13.01;97.98;100453.47;6283772;20;3624606;-52
2022/11/10 10:59:03;;;;;;;;;47.33;38.67;;;;;13.05;97.28;100459.53;6284004;20;3588875;-51
2022/11/10 11:01:37;;;;;;;;;53.33;42.00;;;;;13.08;97.51;100460.22;6277782;20;3626452;-54
2022/11/10 11:04:36;;;;;;;;;54.75;43.75;;;;;13.44;95.86;100458.13;6318017;20;3622210;-54
2022/11/10 11:07:24;;;;;;;;;55.75;42.50;;;;;13.00;98.00;100457.09;6315587;20;3639950;-52
2022/11/10 11:09:52;;;;;;;;;43.33;35.67;;;;;12.95;97.88;100462.78;6318918;20;3600263;-53
2022/11/10 11:12:22;;;;;;;;;55.67;42.00;;;;;13.14;97.89;100453.59;6280872;20;3640956;-50
2022/11/10 11:14:52;;;;;;;;;50.33;40.33;;;;;13.25;98.17;100445.72;6317380;20;3607551;-49
2022/11/10 11:17:22;;;;;;;;;49.67;40.33;;;;;13.42;95.72;100460.91;6276909;20;3618109;-51
2022/11/10 11:19:51;;;;;;;;;53.50;42.50;;;;;13.73;95.67;100457.19;6286678;20;3634644;-52
2022/11/10 11:22:42;;;;;;;;;45.00;36.33;;;;;13.48;96.02;100451.56;6317007;20;3603491;-49
2022/11/10 11:25:34;;;;;;;;;49.67;40.00;;;;;13.22;96.80;100455.81;6280984;20;3611805;-49
2022/11/10 11:29:06;;;;;;;;;50.00;39.00;;;;;13.48;95.64;100451.56;6308896;20;2855622;-50
2022/11/10 11:32:02;;;;;;;;;47.67;38.67;;;;;13.37;94.54;100445.00;6314747;20;3584902;-52